Pagrindinis puslapis
METAR-TAF:

METAR-TAF

Oro uostai :

Sogndalis, Norvegija

platuma: 61-09N, ilguma: 007-08E, Aukštis: 49 m

Dabartinis oras

Ataskaita buvo paskelbta 1 valandą ir 2 minutes, ne 12:50 UTC
Vėjas 2 kt iš Rytų
Temperatūra -2°C
Drėgmė 100%
Slėgis 992 hPa
Matomumas 10 km arba daugiau
Mažai debesys
Išsisklaidę debesys ne aukštis 2000 ft
Su prošvaistėmis ne aukštis 4000 ft

METAR: ENSG 161250Z 08002KT 9999 FEW/// SCT020 BKN040 M02/M02 Q0992 RMK WIND 3806FT 20015KT

Laikas: 14:52 (13:52 UTC)


TAF: trūkstamas

Orai ataskaitas ir orų prognozės (METAR, TAF).

turimą stotys yra geltonos ir raudonos taškus žemėlapyje.

Perkelti pele per norėdami pamatyti stoties vardą.

Tada spustelėkite, norėdami matyti oro stebėjimo ir prognozės.

Norėdami pakeisti žemėlapį: spustelėkite ant žalios mygtukų su juodo kryžiaus žemyn,; žalią mygtuką su brūkšneliu, jei norite nutolinti; arba žalių rodyklių gretimoms žemėlapius.


METAR-TAF: